Search for airport 
image banner adimage banner adimage banner ad
image banner ad

Y76 - Morningstar Field

Located in Des Moines, United States

ICAO - Y76, IATA -

Data provided by Airmate  

General information

Coordinates: N41°39'16" W93°38'28"
Elevation is 805 feet MSL.
Magnetic variation is 04° East
View others Airports in Iowa

Operational data

Special qualification required
Current time UTC:
Current local time:
Weather at : KIKV - Ankeny Rgnl ( 7 km )
METAR: KIKV 181715Z AUTO 34007KT 10SM CLR 28/16 A2992 RMK AO2
View NOTAMs / SUP AIP / TFR affecting this airport [VIEW]
Communications frequencies: [VIEW]

Runways:

RWY identifierQFULength (ft)Width (ft)SurfaceLDA (ft)
182333120GRASS
362333120GRASS

Airport contact information

Address: Des Moines United States

Satellite view of Y76